Time;durP1;ratioP1;P1;durP2;ratioP2;P2;SDS_P1;SDS_P2;PMS_P1;PMS_P2;Temp;Humidity;BMP_temperature;BMP_pressure;BME280_temperature;BME280_humidity;BME280_pressure;Samples;Min_cycle;Max_cycle;Signal;HPM_P1;HPM_P2
2021/05/02 00:00:58;;;;;;;32.55;22.40;;;10.50;87.80;;;;;;5102426;28;27386;-55
2021/05/02 00:03:43;;;;;;;33.03;21.80;;;10.50;88.00;;;;;;5101934;28;27404;-55
2021/05/02 00:06:28;;;;;;;32.95;22.17;;;10.50;88.20;;;;;;5102193;28;27372;-55
2021/05/02 00:09:13;;;;;;;31.80;21.42;;;10.50;88.20;;;;;;5101776;28;27397;-54
2021/05/02 00:11:58;;;;;;;30.90;22.63;;;10.50;88.40;;;;;;5102949;28;27362;-55
2021/05/02 00:14:42;;;;;;;29.67;21.40;;;10.50;88.50;;;;;;5102341;28;27620;-55
2021/05/02 00:17:27;;;;;;;31.48;22.35;;;10.50;88.30;;;;;;5102631;28;27382;-55
2021/05/02 00:20:13;;;;;;;28.77;21.52;;;10.50;88.70;;;;;;5102565;28;27341;-56
2021/05/02 00:23:04;;;;;;;32.33;21.02;;;10.50;88.30;;;;;;5102521;28;27394;-55
2021/05/02 00:25:50;;;;;;;33.28;23.13;;;10.50;88.80;;;;;;5102233;28;27458;-50
2021/05/02 00:28:35;;;;;;;33.05;23.27;;;10.40;88.40;;;;;;5102502;28;27496;-52
2021/05/02 00:31:20;;;;;;;32.95;23.10;;;10.40;89.10;;;;;;5104735;28;27454;-52
2021/05/02 00:34:04;;;;;;;32.28;21.92;;;10.40;89.10;;;;;;5091181;28;27481;-54
2021/05/02 00:36:49;;;;;;;32.17;23.13;;;10.40;89.20;;;;;;5105516;28;27519;-55
2021/05/02 00:39:36;;;;;;;33.00;22.90;;;10.40;89.10;;;;;;5105734;28;27447;-51
2021/05/02 00:42:22;;;;;;;33.47;22.67;;;10.40;89.40;;;;;;5105073;28;27471;-54
2021/05/02 00:45:07;;;;;;;31.95;22.08;;;10.40;89.70;;;;;;5101887;28;27486;-54
2021/05/02 00:47:56;;;;;;;34.33;21.88;;;10.30;89.00;;;;;;5105310;28;27384;-53
2021/05/02 00:50:51;;;;;;;31.83;23.17;;;10.40;89.30;;;;;;5106003;28;27399;-52
2021/05/02 00:54:04;;;;;;;33.47;22.67;;;10.30;89.50;;;;;;5105846;28;27367;-49
2021/05/02 00:57:23;;;;;;;30.20;22.30;;;10.30;89.70;;;;;;5105670;28;27338;-47
2021/05/02 01:00:09;;;;;;;31.38;22.33;;;10.30;89.90;;;;;;5102319;28;27383;-51
2021/05/02 01:02:58;;;;;;;31.25;22.67;;;10.30;89.90;;;;;;5101862;28;27460;-50
2021/05/02 01:05:42;;;;;;;27.80;21.00;;;10.30;90.20;;;;;;5105942;28;27420;-52
2021/05/02 01:08:27;;;;;;;33.47;22.60;;;10.30;90.20;;;;;;5104169;28;27538;-49
2021/05/02 01:11:13;;;;;;;34.25;22.75;;;10.30;90.00;;;;;;5090743;28;27452;-52
2021/05/02 01:13:59;;;;;;;28.15;21.00;;;10.30;90.10;;;;;;5101631;28;27395;-52
2021/05/02 01:16:44;;;;;;;31.20;22.67;;;10.30;90.00;;;;;;5105366;28;27431;-53
2021/05/02 01:19:29;;;;;;;29.48;22.10;;;10.30;89.70;;;;;;5105515;28;27843;-48
2021/05/02 01:22:18;;;;;;;30.63;21.30;;;10.20;89.60;;;;;;5105508;28;27347;-49
2021/05/02 01:25:03;;;;;;;30.55;21.75;;;10.20;89.60;;;;;;5105069;28;27415;-51
2021/05/02 01:27:54;;;;;;;30.63;20.80;;;10.20;89.60;;;;;;5105440;28;27464;-49
2021/05/02 01:30:39;;;;;;;28.20;21.55;;;10.20;89.70;;;;;;5104562;28;27350;-52
2021/05/02 01:33:24;;;;;;;29.63;20.80;;;10.20;89.50;;;;;;5105424;28;27364;-53
2021/05/02 01:36:09;;;;;;;27.33;20.85;;;10.20;89.50;;;;;;5103912;28;27356;-51
2021/05/02 01:38:55;;;;;;;37.88;22.92;;;10.20;89.70;;;;;;5105143;28;27379;-49
2021/05/02 01:41:40;;;;;;;26.95;20.20;;;10.20;89.40;;;;;;5100549;27;27367;-50
2021/05/02 01:44:24;;;;;;;27.08;20.98;;;10.20;89.20;;;;;;5105076;28;27329;-51
2021/05/02 01:47:11;;;;;;;27.52;20.15;;;10.20;89.00;;;;;;5104925;28;27401;-50
2021/05/02 01:50:06;;;;;;;26.73;18.95;;;10.20;89.60;;;;;;5104834;28;27332;-49
2021/05/02 01:52:54;;;;;;;29.67;18.10;;;10.20;89.10;;;;;;5104694;28;27373;-50
2021/05/02 01:55:39;;;;;;;29.30;20.08;;;10.10;88.50;;;;;;5104691;28;27428;-49
2021/05/02 01:58:23;;;;;;;26.88;19.75;;;10.20;88.60;;;;;;5104333;28;27427;-49
2021/05/02 02:01:14;;;;;;;26.60;18.42;;;10.10;88.60;;;;;;5103914;28;27514;-53
2021/05/02 02:04:04;;;;;;;24.25;17.77;;;10.10;87.90;;;;;;5102664;28;27916;-48
2021/05/02 02:06:48;;;;;;;22.63;17.92;;;10.10;88.60;;;;;;5104869;28;27482;-49
2021/05/02 02:09:33;;;;;;;25.00;17.27;;;10.10;89.00;;;;;;5104062;28;27449;-49
2021/05/02 02:12:18;;;;;;;22.33;17.30;;;10.10;88.90;;;;;;5086518;28;27442;-52
2021/05/02 02:15:03;;;;;;;23.60;17.63;;;10.10;88.60;;;;;;5104585;28;27468;-48
2021/05/02 02:17:48;;;;;;;24.48;17.25;;;10.10;88.80;;;;;;5104780;28;27464;-51
2021/05/02 02:20:37;;;;;;;23.05;17.83;;;10.10;88.60;;;;;;5104661;28;27355;-48
2021/05/02 02:23:26;;;;;;;22.40;17.52;;;10.00;88.80;;;;;;5100352;28;27492;-52
2021/05/02 02:26:27;;;;;;;23.35;18.13;;;10.00;88.60;;;;;;5103785;28;27845;-48
2021/05/02 02:29:11;;;;;;;22.27;16.70;;;10.00;88.40;;;;;;5103837;28;27417;-52
2021/05/02 02:31:56;;;;;;;20.27;16.45;;;10.00;89.40;;;;;;5089178;28;27587;-49
2021/05/02 02:34:46;;;;;;;22.15;17.42;;;10.00;88.70;;;;;;5085842;28;27463;-48
2021/05/02 02:37:30;;;;;;;25.25;17.52;;;10.00;88.50;;;;;;5103515;28;28050;-48
2021/05/02 02:40:15;;;;;;;24.00;17.67;;;10.00;88.90;;;;;;5104370;28;27334;-50
2021/05/02 02:43:00;;;;;;;21.05;15.85;;;10.00;89.20;;;;;;5104414;28;27373;-48
2021/05/02 02:45:44;;;;;;;22.17;17.50;;;10.00;89.30;;;;;;5103264;28;27396;-52
2021/05/02 02:48:29;;;;;;;20.20;16.67;;;10.00;89.10;;;;;;5103481;28;27378;-49
2021/05/02 02:51:14;;;;;;;21.92;17.17;;;9.90;89.00;;;;;;5103965;28;27410;-54
2021/05/02 02:53:59;;;;;;;19.90;15.70;;;9.90;89.00;;;;;;5088316;28;27384;-49
2021/05/02 02:56:44;;;;;;;23.33;16.45;;;9.90;89.00;;;;;;5104021;28;27329;-48
2021/05/02 02:59:29;;;;;;;18.60;16.00;;;9.90;89.20;;;;;;5088585;28;27406;-50
2021/05/02 03:02:13;;;;;;;21.27;15.93;;;9.90;88.90;;;;;;5104056;28;27511;-48
2021/05/02 03:04:59;;;;;;;19.63;15.95;;;9.90;89.10;;;;;;5104150;28;27413;-50
2021/05/02 03:07:43;;;;;;;20.52;16.50;;;9.90;88.90;;;;;;5103997;28;27351;-50
2021/05/02 03:10:29;;;;;;;20.67;16.63;;;9.90;89.30;;;;;;5085564;28;27363;-49
2021/05/02 03:13:13;;;;;;;23.13;16.45;;;9.80;88.80;;;;;;5103563;28;27462;-51
2021/05/02 03:16:02;;;;;;;21.83;16.85;;;9.80;89.40;;;;;;5088705;28;27341;-49
2021/05/02 03:19:13;;;;;;;20.75;16.55;;;9.80;89.00;;;;;;5103835;28;27382;-53
2021/05/02 03:22:07;;;;;;;21.50;16.45;;;9.80;89.50;;;;;;5100448;28;27345;-50
2021/05/02 03:24:52;;;;;;;20.33;16.77;;;9.80;89.50;;;;;;5102966;28;27475;-50
2021/05/02 03:28:01;;;;;;;18.92;15.50;;;9.80;89.80;;;;;;5102808;28;27486;-49
2021/05/02 03:30:46;;;;;;;20.15;16.05;;;9.70;88.90;;;;;;5100299;28;27361;-53
2021/05/02 03:33:34;;;;;;;20.88;16.42;;;9.70;90.10;;;;;;5103625;28;27371;-49
2021/05/02 03:36:42;;;;;;;22.20;16.38;;;9.70;90.00;;;;;;5103173;28;27466;-53
2021/05/02 03:39:27;;;;;;;22.63;17.10;;;9.70;90.40;;;;;;5099499;28;27480;-49
2021/05/02 03:42:12;;;;;;;19.52;17.10;;;9.70;90.70;;;;;;5103623;28;27414;-52
2021/05/02 03:44:56;;;;;;;21.45;16.20;;;9.60;90.50;;;;;;5103110;28;27450;-50
2021/05/02 03:47:41;;;;;;;21.15;16.70;;;9.60;90.80;;;;;;5099298;28;27563;-51
2021/05/02 03:50:26;;;;;;;19.60;16.83;;;9.60;90.90;;;;;;5103257;28;27441;-49
2021/05/02 03:53:11;;;;;;;19.60;17.02;;;9.50;91.00;;;;;;5103331;28;27582;-51
2021/05/02 03:55:55;;;;;;;23.38;17.55;;;9.50;91.30;;;;;;5103397;28;27436;-49
2021/05/02 03:58:40;;;;;;;24.45;18.60;;;9.50;91.40;;;;;;5102908;28;27490;-50
2021/05/02 04:01:25;;;;;;;23.30;18.38;;;9.50;91.60;;;;;;5102034;28;27534;-49
2021/05/02 04:04:11;;;;;;;21.50;17.42;;;9.50;91.70;;;;;;5102138;27;27527;-52
2021/05/02 04:07:00;;;;;;;23.95;18.77;;;9.50;91.80;;;;;;5106614;28;27861;-52
2021/05/02 04:09:46;;;;;;;21.70;17.35;;;9.40;92.10;;;;;;5102496;28;27446;-53
2021/05/02 04:12:30;;;;;;;22.23;17.67;;;9.40;92.00;;;;;;5106571;28;27408;-50
2021/05/02 04:15:15;;;;;;;23.38;19.05;;;9.40;92.20;;;;;;5105840;28;27414;-49
2021/05/02 04:18:00;;;;;;;22.23;18.55;;;9.40;92.20;;;;;;5106412;28;27489;-50
2021/05/02 04:20:45;;;;;;;20.67;17.33;;;9.40;92.50;;;;;;5103222;28;27410;-51
2021/05/02 04:23:35;;;;;;;21.70;18.23;;;9.40;92.40;;;;;;5102320;28;27398;-51
2021/05/02 04:26:20;;;;;;;22.60;18.35;;;9.30;92.50;;;;;;5105894;28;27439;-55
2021/05/02 04:29:04;;;;;;;24.67;20.00;;;9.30;92.60;;;;;;5106317;28;27466;-49
2021/05/02 04:31:51;;;;;;;24.48;19.73;;;9.30;92.80;;;;;;5106391;28;27525;-53
2021/05/02 04:34:35;;;;;;;23.25;19.20;;;9.30;92.80;;;;;;5106403;28;27505;-52
2021/05/02 04:37:20;;;;;;;23.77;19.50;;;9.30;93.00;;;;;;5105359;28;27527;-49
2021/05/02 04:40:05;;;;;;;23.27;20.27;;;9.30;92.90;;;;;;5106136;28;27462;-50
2021/05/02 04:42:50;;;;;;;23.88;20.30;;;9.20;93.00;;;;;;5105949;28;27527;-53
2021/05/02 04:45:34;;;;;;;25.13;19.70;;;9.20;93.10;;;;;;5105735;28;27442;-51
2021/05/02 04:48:19;;;;;;;25.98;20.08;;;9.20;93.20;;;;;;5105263;28;27483;-50
2021/05/02 04:51:04;;;;;;;24.92;20.20;;;9.30;92.90;;;;;;5106157;28;27446;-50
2021/05/02 04:53:49;;;;;;;27.55;20.58;;;9.20;93.30;;;;;;5105041;28;27498;-50
2021/05/02 04:56:34;;;;;;;22.95;18.60;;;9.30;93.40;;;;;;5106025;28;27509;-52
2021/05/02 04:59:18;;;;;;;24.40;19.05;;;9.30;91.10;;;;;;5101721;28;27393;-51
2021/05/02 05:02:04;;;;;;;22.23;19.48;;;9.30;93.10;;;;;;5105958;28;27470;-50
2021/05/02 05:04:49;;;;;;;26.02;19.75;;;9.20;93.20;;;;;;5106101;28;27454;-51
2021/05/02 05:07:33;;;;;;;21.83;18.63;;;9.30;93.40;;;;;;5105035;28;27501;-50
2021/05/02 05:10:17;;;;;;;23.52;19.95;;;9.20;93.30;;;;;;5105547;28;27379;-51
2021/05/02 05:13:03;;;;;;;24.05;19.27;;;9.20;93.60;;;;;;5105364;28;27339;-53
2021/05/02 05:15:48;;;;;;;23.50;18.95;;;9.30;93.60;;;;;;5105274;27;27640;-52
2021/05/02 05:18:32;;;;;;;24.33;19.90;;;9.30;93.70;;;;;;5105933;28;26986;-50
2021/05/02 05:21:17;;;;;;;23.88;20.30;;;9.30;93.90;;;;;;5102347;28;27367;-51
2021/05/02 05:24:01;;;;;;;24.33;19.08;;;9.30;94.00;;;;;;5101331;28;27372;-52
2021/05/02 05:26:46;;;;;;;24.55;20.30;;;9.30;93.80;;;;;;5088692;28;27708;-50
2021/05/02 05:29:32;;;;;;;25.58;21.00;;;9.30;92.20;;;;;;5104690;27;27400;-50
2021/05/02 05:32:17;;;;;;;21.70;18.85;;;9.30;93.20;;;;;;5102349;28;27320;-52
2021/05/02 05:35:05;;;;;;;26.77;20.48;;;9.40;93.20;;;;;;5105362;28;27389;-55
2021/05/02 05:37:49;;;;;;;24.90;18.75;;;9.40;93.40;;;;;;5105213;28;27560;-56
2021/05/02 05:40:34;;;;;;;23.50;20.02;;;9.40;92.50;;;;;;5104876;28;27494;-55
2021/05/02 05:43:19;;;;;;;24.92;19.50;;;9.40;91.10;;;;;;5105157;28;27468;-55
2021/05/02 05:46:04;;;;;;;23.70;19.25;;;9.50;89.20;;;;;;5105245;28;27415;-51
2021/05/02 05:48:48;;;;;;;25.55;19.67;;;9.50;88.60;;;;;;5104922;28;27566;-55
2021/05/02 05:51:33;;;;;;;25.10;20.05;;;9.50;88.60;;;;;;5102224;28;27435;-55
2021/05/02 05:54:17;;;;;;;23.95;19.83;;;9.60;88.40;;;;;;5105142;28;27338;-55
2021/05/02 05:57:05;;;;;;;26.70;20.10;;;9.60;88.20;;;;;;5104372;28;27932;-55
2021/05/02 05:59:50;;;;;;;24.85;20.27;;;9.70;87.20;;;;;;5104917;28;27453;-56
2021/05/02 06:02:34;;;;;;;24.10;19.63;;;9.70;88.90;;;;;;5104033;28;27499;-55
2021/05/02 06:05:26;;;;;;;24.08;19.90;;;9.70;88.70;;;;;;5104876;28;27440;-54
2021/05/02 06:08:14;;;;;;;25.50;20.60;;;9.70;88.30;;;;;;5076128;28;27551;-56
2021/05/02 06:11:03;;;;;;;19.88;17.75;;;9.80;88.30;;;;;;5103886;28;27475;-55
2021/05/02 06:13:47;;;;;;;22.90;18.85;;;9.80;88.80;;;;;;5104606;28;27383;-56
2021/05/02 06:16:32;;;;;;;25.52;18.95;;;9.80;88.30;;;;;;5105002;28;27465;-55
2021/05/02 06:19:27;;;;;;;24.63;18.73;;;9.90;86.70;;;;;;5104719;28;27441;-56
2021/05/02 06:22:23;;;;;;;25.25;19.98;;;9.90;87.10;;;;;;5104401;28;27458;-56
2021/05/02 06:25:12;;;;;;;24.23;18.95;;;10.00;87.60;;;;;;5103906;28;27438;-54
2021/05/02 06:27:59;;;;;;;26.25;18.88;;;10.00;86.90;;;;;;5088377;28;27475;-56
2021/05/02 06:30:44;;;;;;;25.58;17.95;;;10.10;86.80;;;;;;5104508;28;27453;-56
2021/05/02 06:33:29;;;;;;;24.27;19.08;;;10.30;86.20;;;;;;5103781;28;27540;-56
2021/05/02 06:36:13;;;;;;;25.15;19.08;;;10.40;87.40;;;;;;5103575;28;27498;-55
2021/05/02 06:38:58;;;;;;;34.20;25.23;;;10.50;86.60;;;;;;5104469;28;27466;-56
2021/05/02 06:41:45;;;;;;;25.55;19.85;;;10.60;85.60;;;;;;5104257;28;27966;-56
2021/05/02 06:44:29;;;;;;;22.50;18.67;;;10.80;85.20;;;;;;5103555;28;27585;-56
2021/05/02 06:47:14;;;;;;;22.88;18.23;;;11.00;84.80;;;;;;5104095;28;27469;-54
2021/05/02 06:49:58;;;;;;;25.42;19.23;;;11.20;83.30;;;;;;5103822;28;27507;-56
2021/05/02 06:52:43;;;;;;;23.58;17.98;;;11.30;83.80;;;;;;5071277;28;27507;-56
2021/05/02 06:55:27;;;;;;;22.85;17.92;;;11.30;84.20;;;;;;5104057;28;27335;-56
2021/05/02 06:58:12;;;;;;;22.95;18.52;;;11.30;85.90;;;;;;5104092;28;27387;-56
2021/05/02 07:00:57;;;;;;;20.38;17.08;;;11.20;85.40;;;;;;5103004;28;27351;-55
2021/05/02 07:03:42;;;;;;;19.15;16.90;;;11.30;85.60;;;;;;5099798;28;27347;-56
2021/05/02 07:06:27;;;;;;;22.25;18.38;;;11.40;85.50;;;;;;5103929;28;27388;-54
2021/05/02 07:09:11;;;;;;;21.95;17.95;;;11.30;84.50;;;;;;5103647;28;27408;-56
2021/05/02 07:12:09;;;;;;;;;;;;;;;;;;;;;
2021/05/02 07:15:00;;;;;;;24.60;18.42;;;11.40;86.10;;;;;;5085625;28;27402;-55
2021/05/02 07:17:56;;;;;;;22.02;16.95;;;11.60;86.40;;;;;;5100831;28;27374;-56
2021/05/02 07:20:40;;;;;;;21.25;17.85;;;12.10;84.50;;;;;;5088846;28;27442;-55
2021/05/02 07:23:25;;;;;;;20.67;16.38;;;12.70;82.50;;;;;;5103905;28;27333;-57
2021/05/02 07:26:45;;;;;;;23.40;17.70;;;13.20;81.10;;;;;;5101639;28;27394;-57
2021/05/02 07:29:30;;;;;;;24.98;17.10;;;13.50;78.80;;;;;;5099310;28;27467;-55
2021/05/02 07:32:14;;;;;;;19.95;16.20;;;13.70;78.80;;;;;;5103981;28;27419;-57
2021/05/02 07:34:59;;;;;;;18.27;16.17;;;13.70;77.70;;;;;;5099862;28;27511;-56
2021/05/02 07:37:47;;;;;;;21.98;16.65;;;13.90;77.20;;;;;;5103782;28;27422;-57
2021/05/02 07:40:52;;;;;;;17.08;15.25;;;14.30;76.30;;;;;;5061884;28;27457;-57
2021/05/02 07:43:49;;;;;;;17.60;15.40;;;14.70;74.60;;;;;;5103004;28;27457;-57
2021/05/02 07:46:50;;;;;;;19.20;15.73;;;15.10;73.60;;;;;;5090221;28;27417;-57
2021/05/02 07:49:51;;;;;;;16.10;14.38;;;15.50;72.70;;;;;;5103096;28;27864;-56
2021/05/02 07:52:38;;;;;;;16.40;14.40;;;15.60;71.10;;;;;;5059975;28;27542;-57
2021/05/02 07:55:26;;;;;;;17.05;14.20;;;15.60;70.30;;;;;;5102474;28;27590;-57
2021/05/02 07:58:11;;;;;;;15.93;14.15;;;15.80;71.20;;;;;;5102794;28;27442;-56
2021/05/02 08:01:06;;;;;;;17.75;15.18;;;15.50;70.20;;;;;;5102709;28;27437;-57
2021/05/02 08:03:50;;;;;;;20.33;14.88;;;15.10;71.00;;;;;;5103445;28;27552;-56
2021/05/02 08:07:08;;;;;;;19.70;13.98;;;14.60;72.30;;;;;;5103277;28;27427;-56
2021/05/02 08:10:18;;;;;;;18.75;15.70;;;14.20;75.00;;;;;;5029223;28;27369;-56
2021/05/02 08:13:03;;;;;;;19.92;15.00;;;13.70;77.10;;;;;;5027367;28;27483;-56
2021/05/02 08:15:48;;;;;;;18.02;15.13;;;13.70;79.90;;;;;;5040554;28;27359;-56
2021/05/02 08:18:51;;;;;;;17.40;13.80;;;13.60;79.60;;;;;;5040991;28;27381;-56
2021/05/02 08:21:51;;;;;;;16.02;13.93;;;14.00;81.50;;;;;;4980014;28;27037;-56
2021/05/02 08:24:42;;;;;;;16.80;14.80;;;14.30;82.70;;;;;;4941954;28;27471;-56
2021/05/02 08:27:29;;;;;;;16.40;13.48;;;14.90;82.70;;;;;;4928524;28;27664;-55
2021/05/02 08:30:14;;;;;;;15.45;13.77;;;15.10;80.20;;;;;;4914950;28;27579;-55
2021/05/02 08:33:15;;;;;;;17.27;13.40;;;15.00;77.20;;;;;;4942231;28;27424;-52
2021/05/02 08:36:00;;;;;;;13.90;12.40;;;14.70;76.90;;;;;;4942594;28;27837;-51
2021/05/02 08:38:45;;;;;;;16.73;13.05;;;14.50;77.30;;;;;;4943281;28;27403;-54
2021/05/02 08:41:30;;;;;;;14.73;13.23;;;14.20;79.10;;;;;;4943819;28;27536;-56
2021/05/02 08:44:17;;;;;;;13.88;12.05;;;14.00;81.10;;;;;;4943315;28;27382;-56
2021/05/02 08:47:02;;;;;;;13.57;12.07;;;13.80;81.90;;;;;;4917159;28;27973;-56
2021/05/02 08:49:46;;;;;;;15.20;13.02;;;13.70;81.20;;;;;;4942947;28;27472;-54
2021/05/02 08:52:35;;;;;;;17.02;13.35;;;13.60;82.40;;;;;;4993280;28;27408;-56
2021/05/02 08:55:19;;;;;;;18.65;12.60;;;13.50;81.90;;;;;;5088980;28;27451;-58
2021/05/02 08:58:04;;;;;;;14.48;12.05;;;13.40;82.00;;;;;;5107519;28;27450;-56
2021/05/02 09:00:50;;;;;;;14.88;12.55;;;13.40;81.70;;;;;;5107131;28;27475;-56
2021/05/02 09:03:40;;;;;;;14.65;12.82;;;13.40;82.10;;;;;;5107194;28;27388;-57
2021/05/02 09:06:29;;;;;;;16.80;13.68;;;13.50;82.80;;;;;;5107131;28;27308;-56
2021/05/02 09:09:14;;;;;;;14.55;12.30;;;13.50;82.70;;;;;;5088598;28;27506;-55
2021/05/02 09:12:00;;;;;;;15.55;13.55;;;13.50;83.40;;;;;;5107044;28;27481;-55
2021/05/02 09:14:45;;;;;;;15.43;12.98;;;13.50;84.00;;;;;;5106662;28;27407;-54
2021/05/02 09:17:37;;;;;;;15.52;13.52;;;13.60;83.70;;;;;;5106363;28;27443;-55
2021/05/02 09:20:57;;;;;;;14.85;13.20;;;13.60;83.40;;;;;;5106120;28;27418;-53
2021/05/02 09:23:42;;;;;;;17.10;13.85;;;13.80;82.30;;;;;;5043746;28;27473;-55
2021/05/02 09:26:34;;;;;;;16.40;14.27;;;14.10;81.40;;;;;;5043778;28;27544;-58
2021/05/02 09:29:19;;;;;;;15.57;13.88;;;14.80;80.00;;;;;;5044148;28;27508;-57
2021/05/02 09:32:05;;;;;;;20.92;14.35;;;15.30;78.30;;;;;;5029711;28;27543;-57
2021/05/02 09:34:51;;;;;;;16.67;14.20;;;15.30;76.70;;;;;;5044046;28;27532;-55
2021/05/02 09:37:36;;;;;;;18.63;13.45;;;15.40;77.30;;;;;;5043905;28;27465;-54
2021/05/02 09:40:21;;;;;;;15.02;12.90;;;15.30;76.80;;;;;;5040717;28;27440;-53
2021/05/02 09:43:05;;;;;;;16.67;13.50;;;15.20;75.50;;;;;;5029903;28;27509;-55
2021/05/02 09:46:34;;;;;;;18.58;14.98;;;15.40;75.40;;;;;;5030148;28;27470;-53
2021/05/02 09:49:19;;;;;;;18.42;14.65;;;15.90;77.00;;;;;;5043896;28;27394;-53
2021/05/02 09:52:04;;;;;;;18.45;14.65;;;16.50;74.90;;;;;;5029935;28;27405;-51
2021/05/02 09:54:49;;;;;;;15.57;13.88;;;16.70;72.80;;;;;;5029779;28;27359;-52
2021/05/02 09:57:34;;;;;;;17.00;14.55;;;16.70;72.90;;;;;;5070385;28;27410;-54
2021/05/02 10:00:38;;;;;;;18.95;14.13;;;16.90;72.10;;;;;;5091459;28;27372;-52
2021/05/02 10:03:24;;;;;;;16.00;13.90;;;17.30;71.40;;;;;;5105911;27;27411;-54
2021/05/02 10:06:12;;;;;;;16.23;14.52;;;17.70;70.80;;;;;;5106214;28;27395;-55
2021/05/02 10:08:57;;;;;;;14.43;12.98;;;18.30;71.00;;;;;;5104919;28;27392;-56
2021/05/02 10:11:42;;;;;;;17.05;13.18;;;18.80;70.20;;;;;;5106022;28;27336;-56
2021/05/02 10:14:27;;;;;;;16.77;13.27;;;19.10;67.60;;;;;;5090876;28;27400;-56
2021/05/02 10:17:11;;;;;;;14.50;13.10;;;19.10;64.40;;;;;;5105885;28;27374;-55
2021/05/02 10:19:56;;;;;;;14.45;12.77;;;18.80;62.60;;;;;;5105907;28;27367;-56
2021/05/02 10:22:41;;;;;;;16.02;13.70;;;18.40;62.40;;;;;;5106168;28;27362;-56
2021/05/02 10:25:25;;;;;;;16.77;13.95;;;17.90;66.50;;;;;;5105559;28;27394;-58
2021/05/02 10:28:15;;;;;;;14.45;12.15;;;17.50;67.60;;;;;;5105626;28;27343;-58
2021/05/02 10:31:01;;;;;;;20.10;14.27;;;17.10;69.10;;;;;;5105660;28;27418;-58
2021/05/02 10:33:48;;;;;;;14.25;11.60;;;16.80;70.70;;;;;;5105673;28;27431;-56
2021/05/02 10:36:33;;;;;;;14.07;12.63;;;16.40;70.80;;;;;;5105333;28;27509;-58
2021/05/02 10:39:17;;;;;;;16.75;13.23;;;16.10;72.60;;;;;;5105604;28;27462;-56
2021/05/02 10:42:02;;;;;;;14.60;13.00;;;15.90;74.60;;;;;;5105741;28;27468;-55
2021/05/02 10:44:46;;;;;;;18.20;13.20;;;15.70;73.20;;;;;;5105494;28;27467;-56
2021/05/02 10:47:44;;;;;;;14.15;11.90;;;15.60;71.40;;;;;;5104849;28;27439;-55
2021/05/02 10:50:30;;;;;;;14.95;11.52;;;15.50;70.30;;;;;;5104957;28;28010;-53
2021/05/02 10:53:16;;;;;;;16.13;13.15;;;15.40;70.70;;;;;;5101687;28;27328;-56
2021/05/02 10:56:03;;;;;;;15.02;11.88;;;15.40;70.30;;;;;;5105391;28;27390;-56
2021/05/02 10:58:56;;;;;;;14.23;12.10;;;15.40;70.40;;;;;;5105546;28;27316;-55
2021/05/02 11:01:41;;;;;;;12.82;11.52;;;15.50;70.60;;;;;;5104245;28;27887;-58
2021/05/02 11:04:54;;;;;;;15.30;12.88;;;15.60;70.90;;;;;;5105450;28;27413;-58
2021/05/02 11:07:40;;;;;;;12.23;10.18;;;16.00;72.60;;;;;;5104460;28;27392;-55
2021/05/02 11:10:25;;;;;;;13.05;11.75;;;16.50;70.90;;;;;;5104712;28;27509;-55
2021/05/02 11:13:26;;;;;;;10.68;9.57;;;17.00;69.80;;;;;;5090222;28;27862;-56
2021/05/02 11:16:25;;;;;;;14.65;10.70;;;17.30;69.50;;;;;;5104756;28;27492;-56
2021/05/02 11:19:16;;;;;;;11.68;9.85;;;17.60;68.30;;;;;;5105284;28;27340;-55
2021/05/02 11:22:10;;;;;;;12.07;9.45;;;17.80;67.00;;;;;;5105099;28;27493;-57
2021/05/02 11:24:55;;;;;;;13.23;10.35;;;18.00;67.40;;;;;;5105045;28;27449;-55
2021/05/02 11:27:58;;;;;;;10.90;9.80;;;18.20;68.60;;;;;;5104264;28;27473;-57
2021/05/02 11:30:49;;;;;;;10.75;9.65;;;18.50;68.90;;;;;;5101812;28;27321;-57
2021/05/02 11:33:33;;;;;;;9.48;8.50;;;18.80;70.70;;;;;;5104791;28;27367;-57
2021/05/02 11:36:40;;;;;;;10.48;9.40;;;18.90;68.90;;;;;;5104184;28;27460;-57
2021/05/02 11:39:30;;;;;;;10.15;9.15;;;19.00;67.20;;;;;;5104716;28;27436;-56
2021/05/02 11:42:15;;;;;;;11.10;8.63;;;19.00;65.90;;;;;;5105141;28;26962;-56
2021/05/02 11:45:00;;;;;;;11.23;10.02;;;18.80;65.80;;;;;;5104187;28;27494;-58
2021/05/02 11:47:45;;;;;;;10.90;8.55;;;18.60;64.90;;;;;;5104574;28;27548;-57
2021/05/02 11:50:37;;;;;;;10.48;9.43;;;18.30;64.00;;;;;;5104246;28;27469;-56
2021/05/02 11:53:37;;;;;;;12.52;9.15;;;17.90;62.70;;;;;;5100568;28;27425;-55
2021/05/02 11:56:34;;;;;;;10.75;8.70;;;17.50;62.90;;;;;;5104449;28;27384;-56
2021/05/02 11:59:19;;;;;;;9.95;8.98;;;17.10;65.50;;;;;;5104635;28;27340;-54
2021/05/02 12:02:04;;;;;;;10.98;8.85;;;16.80;67.30;;;;;;5104605;28;27355;-54
2021/05/02 12:04:49;;;;;;;11.77;8.45;;;16.40;70.90;;;;;;5104490;28;27363;-50
2021/05/02 12:07:33;;;;;;;10.68;8.18;;;16.20;69.80;;;;;;5103856;28;27434;-52
2021/05/02 12:10:20;;;;;;;8.20;6.75;;;16.00;65.40;;;;;;5104447;28;27500;-51
2021/05/02 12:13:05;;;;;;;10.48;6.57;;;15.80;66.10;;;;;;5104499;28;27341;-54
2021/05/02 12:16:09;;;;;;;8.45;6.50;;;15.50;68.40;;;;;;5101254;28;27358;-55
2021/05/02 12:18:54;;;;;;;9.48;6.45;;;15.20;67.50;;;;;;5104516;28;27360;-51
2021/05/02 12:21:46;;;;;;;8.02;6.40;;;14.90;68.80;;;;;;5104484;28;27385;-54
2021/05/02 12:24:31;;;;;;;9.30;7.93;;;14.70;71.00;;;;;;5103211;28;27576;-57
2021/05/02 12:27:18;;;;;;;8.50;7.60;;;14.40;71.20;;;;;;5106851;27;27435;-54
2021/05/02 12:30:03;;;;;;;10.27;6.63;;;14.20;71.80;;;;;;5107662;28;27394;-52
2021/05/02 12:32:48;;;;;;;9.68;6.80;;;14.00;70.40;;;;;;5107892;28;27497;-54
2021/05/02 12:35:32;;;;;;;9.63;7.80;;;13.80;73.10;;;;;;5106777;28;27470;-55
2021/05/02 12:38:27;;;;;;;7.45;6.70;;;13.60;73.80;;;;;;5107627;28;26860;-52
2021/05/02 12:41:19;;;;;;;8.77;7.80;;;13.50;73.50;;;;;;5103496;28;27465;-55
2021/05/02 12:44:20;;;;;;;10.02;8.95;;;13.40;74.20;;;;;;5107410;28;27504;-54
2021/05/02 12:47:19;;;;;;;11.80;8.27;;;13.40;74.40;;;;;;5107691;28;27454;-55
2021/05/02 12:50:06;;;;;;;12.68;9.23;;;13.40;76.70;;;;;;5103024;28;27463;-52
2021/05/02 12:52:52;;;;;;;19.77;12.65;;;13.30;82.30;;;;;;5107255;28;27438;-56
2021/05/02 12:55:37;;;;;;;12.20;10.32;;;13.30;82.70;;;;;;5107227;28;27927;-57
2021/05/02 12:58:35;;;;;;;30.60;19.35;;;13.30;91.00;;;;;;5103397;28;27430;-56
2021/05/02 13:01:20;;;;;;;14.82;13.00;;;13.30;90.80;;;;;;5103431;28;27330;-54
2021/05/02 13:04:06;;;;;;;14.38;12.93;;;13.40;90.30;;;;;;5103312;28;27427;-53
2021/05/02 13:06:50;;;;;;;53.35;17.42;;;13.40;91.30;;;;;;5106953;28;27360;-54
2021/05/02 13:09:39;;;;;;;140.80;32.70;;;13.40;90.60;;;;;;5106777;28;27370;-50
2021/05/02 13:12:24;;;;;;;24.77;14.68;;;13.60;95.10;;;;;;5107248;28;27464;-54
2021/05/02 13:15:11;;;;;;;15.68;11.82;;;13.70;92.40;;;;;;5107145;28;27422;-50
2021/05/02 13:18:02;;;;;;;13.45;11.98;;;13.70;90.30;;;;;;5107086;28;27995;-52
2021/05/02 13:20:51;;;;;;;15.00;11.23;;;13.70;84.80;;;;;;5103725;28;27370;-53
2021/05/02 13:23:38;;;;;;;14.27;10.73;;;13.70;80.80;;;;;;5106861;28;27531;-51
2021/05/02 13:26:28;;;;;;;17.52;11.95;;;13.60;82.10;;;;;;5105716;28;27428;-52
2021/05/02 13:29:17;;;;;;;14.35;11.77;;;13.50;81.40;;;;;;5106760;28;27324;-54
2021/05/02 13:32:02;;;;;;;13.15;11.73;;;13.50;85.50;;;;;;5106489;28;27427;-52
2021/05/02 13:34:47;;;;;;;14.35;11.52;;;13.50;81.10;;;;;;5106555;28;27478;-49
2021/05/02 13:37:31;;;;;;;14.05;12.25;;;13.40;84.80;;;;;;5105903;27;27419;-50
2021/05/02 13:40:17;;;;;;;14.68;11.52;;;13.40;87.10;;;;;;5106448;28;27462;-52
2021/05/02 13:43:02;;;;;;;14.00;12.50;;;13.40;83.30;;;;;;5103215;28;27442;-53
2021/05/02 13:45:47;;;;;;;16.83;15.27;;;13.40;88.50;;;;;;5106544;28;27453;-53
2021/05/02 13:48:33;;;;;;;13.68;12.27;;;13.40;85.80;;;;;;5105340;28;27009;-54
2021/05/02 13:51:18;;;;;;;13.30;11.90;;;13.40;86.10;;;;;;5106202;28;27430;-55
2021/05/02 13:54:04;;;;;;;12.25;11.00;;;13.30;84.20;;;;;;5103266;28;27465;-50
2021/05/02 13:56:48;;;;;;;12.13;10.90;;;13.30;84.40;;;;;;5106085;28;27432;-52
2021/05/02 13:59:33;;;;;;;13.15;11.75;;;13.20;84.40;;;;;;5106196;28;27473;-50
2021/05/02 14:02:18;;;;;;;11.85;10.65;;;13.20;87.70;;;;;;5105993;28;27418;-51
2021/05/02 14:05:03;;;;;;;15.15;12.38;;;13.30;81.40;;;;;;5106058;28;27435;-50
2021/05/02 14:07:48;;;;;;;14.13;12.57;;;13.40;84.50;;;;;;5102806;28;27426;-51
2021/05/02 14:10:33;;;;;;;13.52;12.13;;;13.60;85.70;;;;;;5105834;28;27427;-54
2021/05/02 14:13:18;;;;;;;15.52;12.35;;;13.70;88.00;;;;;;5101970;28;27570;-51
2021/05/02 14:16:03;;;;;;;16.00;11.55;;;13.80;87.60;;;;;;5106178;28;27544;-51
2021/05/02 14:18:48;;;;;;;14.07;12.15;;;13.90;89.50;;;;;;5105199;28;27491;-48